Time;durP1;ratioP1;P1;durP2;ratioP2;P2;SDS_P1;SDS_P2;PMS_P1;PMS_P2;Temp;Humidity;BMP_temperature;BMP_pressure;BME280_temperature;BME280_humidity;BME280_pressure;Samples;Min_cycle;Max_cycle;Signal;HPM_P1;HPM_P2
2023/03/15 00:02:03;;;;;;;6.43;2.63;;;7.30;75.30;;;;;;5067955;28;20331;-62
2023/03/15 00:04:47;;;;;;;8.25;2.40;;;7.20;75.30;;;;;;5052380;28;20224;-62
2023/03/15 00:07:30;;;;;;;5.78;2.30;;;7.30;75.30;;;;;;5063869;28;20226;-62
2023/03/15 00:10:21;;;;;;;7.45;2.35;;;7.30;75.30;;;;;;5060332;28;20578;-62
2023/03/15 00:13:01;;;;;;;7.40;2.55;;;7.30;75.30;;;;;;5052304;28;20638;-62
2023/03/15 00:18:52;;;;;;;5.72;2.55;;;7.30;75.30;;;;;;5065873;28;20602;-62
2023/03/15 00:21:43;;;;;;;8.20;2.50;;;7.30;75.30;;;;;;5065133;28;20217;-62
2023/03/15 00:24:48;;;;;;;8.32;2.30;;;7.30;75.20;;;;;;5059651;28;20229;-62
2023/03/15 00:27:34;;;;;;;5.05;2.30;;;7.30;75.30;;;;;;5061780;28;20817;-61
2023/03/15 00:30:21;;;;;;;5.93;2.00;;;7.30;75.20;;;;;;5047547;28;20222;-62
2023/03/15 00:35:56;;;;;;;5.18;2.22;;;7.30;75.20;;;;;;5063270;28;20213;-62
2023/03/15 00:39:02;;;;;;;6.35;2.60;;;7.20;75.10;;;;;;5063833;28;20260;-63
2023/03/15 00:42:01;;;;;;;6.68;2.70;;;7.20;75.20;;;;;;5062198;28;20229;-62
2023/03/15 00:44:53;;;;;;;6.65;2.95;;;7.20;75.20;;;;;;5065106;28;20255;-62
2023/03/15 00:47:54;;;;;;;7.07;2.85;;;7.20;75.20;;;;;;5055457;28;20219;-62
2023/03/15 00:50:34;;;;;;;7.13;2.95;;;7.10;75.20;;;;;;5059549;28;20221;-62
2023/03/15 00:53:16;;;;;;;5.38;2.75;;;7.10;75.20;;;;;;5063379;28;20217;-62
2023/03/15 00:56:02;;;;;;;8.65;3.28;;;7.10;75.30;;;;;;5063802;28;20237;-62
2023/03/15 00:59:10;;;;;;;5.68;2.85;;;7.10;75.10;;;;;;5066811;28;20224;-63
2023/03/15 01:05:14;;;;;;;10.00;3.22;;;6.90;75.10;;;;;;5068231;28;20572;-63
2023/03/15 01:08:08;;;;;;;7.50;3.40;;;6.90;75.10;;;;;;5054015;28;20207;-62
2023/03/15 01:11:25;;;;;;;7.30;3.10;;;6.90;75.20;;;;;;5062405;28;20218;-62
2023/03/15 01:14:17;;;;;;;8.80;3.22;;;6.90;75.20;;;;;;5069596;28;20551;-62
2023/03/15 01:20:08;;;;;;;8.38;3.90;;;6.80;75.20;;;;;;5076899;28;20342;-62
2023/03/15 01:22:52;;;;;;;9.20;4.65;;;6.70;75.30;;;;;;5065040;28;20224;-62
2023/03/15 01:25:45;;;;;;;8.95;4.13;;;6.70;75.40;;;;;;5060240;28;20210;-62
2023/03/15 01:28:46;;;;;;;10.40;3.95;;;6.70;75.50;;;;;;5058281;28;20211;-63
2023/03/15 01:31:33;;;;;;;9.48;4.82;;;6.70;75.50;;;;;;5065274;28;20233;-62
2023/03/15 01:34:34;;;;;;;7.35;3.85;;;6.70;75.50;;;;;;5031231;28;20294;-62
2023/03/15 01:37:17;;;;;;;8.68;4.30;;;6.70;75.50;;;;;;5021984;28;20229;-62
2023/03/15 01:39:56;;;;;;;9.25;4.22;;;6.80;75.60;;;;;;5038352;28;20241;-65
2023/03/15 01:43:08;;;;;;;11.55;4.13;;;6.80;75.60;;;;;;5061590;28;20218;-63
2023/03/15 01:50:04;;;;;;;9.10;4.32;;;6.70;75.50;;;;;;5032335;28;20226;-64
2023/03/15 01:52:56;;;;;;;12.35;4.90;;;6.70;75.50;;;;;;5064962;28;20218;-64
2023/03/15 01:55:51;;;;;;;12.40;5.35;;;6.60;75.50;;;;;;5062171;28;20644;-63
2023/03/15 01:58:46;;;;;;;9.75;4.85;;;6.60;75.50;;;;;;5066299;28;20204;-65
2023/03/15 02:01:54;;;;;;;9.15;4.53;;;6.60;75.60;;;;;;5062209;28;20245;-63
2023/03/15 02:04:45;;;;;;;11.95;5.15;;;6.60;75.60;;;;;;5063112;28;20668;-64
2023/03/15 02:07:48;;;;;;;11.40;5.00;;;6.60;75.40;;;;;;5061363;28;20214;-64
2023/03/15 02:10:38;;;;;;;8.77;5.25;;;6.60;75.50;;;;;;5021836;28;20354;-63
2023/03/15 02:20:26;;;;;;;9.85;5.32;;;6.50;75.50;;;;;;5080135;28;20209;-64
2023/03/15 02:23:24;;;;;;;13.02;5.60;;;6.50;75.40;;;;;;5061760;28;20271;-64
2023/03/15 02:26:11;;;;;;;20.08;6.57;;;6.40;75.40;;;;;;5057468;28;20315;-63
2023/03/15 02:29:16;;;;;;;14.98;5.63;;;6.40;75.50;;;;;;5060515;28;20223;-63
2023/03/15 02:35:15;;;;;;;17.10;5.40;;;6.30;75.50;;;;;;5069708;28;20266;-63
2023/03/15 02:38:25;;;;;;;11.65;5.57;;;6.30;75.40;;;;;;5061386;28;20217;-64
2023/03/15 02:41:09;;;;;;;10.90;5.10;;;6.30;75.40;;;;;;5062695;28;20235;-63
2023/03/15 02:47:01;;;;;;;16.45;5.68;;;6.20;75.40;;;;;;5044178;28;20209;-62
2023/03/15 02:49:55;;;;;;;10.35;4.15;;;6.20;75.60;;;;;;5057835;28;20235;-62
2023/03/15 02:53:01;;;;;;;12.85;3.83;;;6.20;75.40;;;;;;5062047;28;20289;-65
2023/03/15 02:55:50;;;;;;;10.18;4.03;;;6.20;75.40;;;;;;5040718;28;20230;-62
2023/03/15 02:58:34;;;;;;;12.95;4.47;;;6.20;75.40;;;;;;5057998;28;20210;-62
2023/03/15 03:01:22;;;;;;;15.02;4.60;;;6.20;75.40;;;;;;5068188;28;20232;-62
2023/03/15 03:04:35;;;;;;;13.45;4.43;;;6.20;75.40;;;;;;5065432;28;20375;-64
2023/03/15 03:07:28;;;;;;;15.30;3.83;;;6.20;75.40;;;;;;5064431;28;20604;-63
2023/03/15 03:10:16;;;;;;;16.70;4.13;;;6.20;75.30;;;;;;5042790;28;20223;-62
2023/03/15 03:13:13;;;;;;;12.40;3.65;;;6.20;75.30;;;;;;5052139;28;20929;-62
2023/03/15 03:16:02;;;;;;;8.68;3.60;;;6.10;75.30;;;;;;5065236;28;20194;-63
2023/03/15 03:18:42;;;;;;;8.75;3.88;;;6.10;75.30;;;;;;5056865;28;20327;-63
2023/03/15 03:21:37;;;;;;;13.23;4.57;;;6.10;75.30;;;;;;5076937;28;20678;-61
2023/03/15 03:24:24;;;;;;;8.50;4.07;;;6.10;75.20;;;;;;5030004;28;20567;-62
2023/03/15 03:30:28;;;;;;;14.52;3.83;;;6.00;75.30;;;;;;5065605;28;20203;-62
2023/03/15 03:33:18;;;;;;;12.45;4.38;;;6.00;75.30;;;;;;5081590;28;20540;-63
2023/03/15 03:36:11;;;;;;;12.60;4.00;;;6.00;75.20;;;;;;5059127;28;20233;-62
2023/03/15 03:39:11;;;;;;;9.35;3.60;;;6.00;75.20;;;;;;5064572;28;20547;-63
2023/03/15 03:44:49;;;;;;;6.78;2.75;;;5.90;75.10;;;;;;5061400;28;20261;-62
2023/03/15 03:47:47;;;;;;;9.57;3.92;;;5.90;75.10;;;;;;5048798;28;20218;-63
2023/03/15 03:50:55;;;;;;;11.55;4.07;;;5.80;75.00;;;;;;5058349;28;20212;-62
2023/03/15 03:54:00;;;;;;;9.68;3.00;;;5.80;75.10;;;;;;5057528;28;20227;-63
2023/03/15 03:56:53;;;;;;;10.57;3.20;;;5.80;75.20;;;;;;5062695;28;20216;-63
2023/03/15 03:59:38;;;;;;;13.05;3.97;;;5.80;75.20;;;;;;5063036;28;20723;-62
2023/03/15 04:02:41;;;;;;;7.45;3.20;;;5.80;75.20;;;;;;5031263;28;20758;-63
2023/03/15 04:05:38;;;;;;;8.95;3.38;;;5.80;75.10;;;;;;5052439;28;20319;-62
2023/03/15 04:08:30;;;;;;;12.45;3.53;;;5.80;75.10;;;;;;5063256;28;20213;-63
2023/03/15 04:11:25;;;;;;;8.43;3.45;;;5.70;75.00;;;;;;5069934;28;20209;-62
2023/03/15 04:14:10;;;;;;;7.22;3.75;;;5.70;75.10;;;;;;5048719;28;20521;-62
2023/03/15 04:17:02;;;;;;;9.45;3.20;;;5.70;75.10;;;;;;5063471;28;20258;-62
2023/03/15 04:19:49;;;;;;;7.65;3.85;;;5.70;75.10;;;;;;5064226;28;20300;-62
2023/03/15 04:22:57;;;;;;;12.05;4.15;;;5.70;75.00;;;;;;5056626;28;20643;-62
2023/03/15 04:26:25;;;;;;;11.38;3.50;;;5.70;75.00;;;;;;5044931;28;20232;-63
2023/03/15 04:29:14;;;;;;;12.02;3.40;;;5.70;75.10;;;;;;5063554;28;20432;-63
2023/03/15 04:32:47;;;;;;;10.77;3.72;;;5.70;74.90;;;;;;5031403;28;20310;-62
2023/03/15 04:38:51;;;;;;;8.20;3.20;;;5.60;74.90;;;;;;5061201;28;20205;-62
2023/03/15 04:45:27;;;;;;;7.72;3.35;;;5.70;75.00;;;;;;5002457;28;20222;-62
2023/03/15 04:48:46;;;;;;;15.43;3.80;;;5.60;74.90;;;;;;5009643;28;20225;-63
2023/03/15 04:51:42;;;;;;;17.98;3.80;;;5.60;74.90;;;;;;5054459;28;20213;-63
2023/03/15 04:54:57;;;;;;;7.72;3.17;;;5.60;74.90;;;;;;5063740;28;20255;-63
2023/03/15 04:58:12;;;;;;;21.85;4.80;;;5.70;74.90;;;;;;5035164;28;20543;-62
2023/03/15 05:01:36;;;;;;;10.07;3.45;;;5.60;74.80;;;;;;5047072;28;20259;-62
2023/03/15 05:04:32;;;;;;;14.75;4.03;;;5.60;74.80;;;;;;5063831;28;20389;-63
2023/03/15 05:07:53;;;;;;;9.73;3.50;;;5.60;74.70;;;;;;5062377;28;20205;-63
2023/03/15 05:11:07;;;;;;;10.75;4.32;;;5.60;74.70;;;;;;5015320;28;20223;-63
2023/03/15 05:14:37;;;;;;;13.23;4.05;;;5.60;74.70;;;;;;5018793;28;20255;-62
2023/03/15 05:21:41;;;;;;;8.98;4.43;;;5.50;74.60;;;;;;5062591;28;20222;-63
2023/03/15 05:28:27;;;;;;;8.15;3.90;;;5.60;74.60;;;;;;5062034;28;20239;-63
2023/03/15 05:32:11;;;;;;;8.90;4.25;;;5.60;74.60;;;;;;5017318;28;20373;-62
2023/03/15 05:35:15;;;;;;;11.57;4.25;;;5.60;74.60;;;;;;5019821;28;20291;-62
2023/03/15 05:38:46;;;;;;;8.60;4.00;;;5.60;74.40;;;;;;5049188;28;20707;-63
2023/03/15 05:41:51;;;;;;;14.30;5.05;;;5.60;74.40;;;;;;5066661;28;20226;-62
2023/03/15 05:45:16;;;;;;;16.08;6.22;;;5.50;74.30;;;;;;4975327;28;20273;-63
2023/03/15 05:48:43;;;;;;;11.55;4.95;;;5.50;74.40;;;;;;4975158;28;20218;-62
2023/03/15 05:51:55;;;;;;;14.38;5.43;;;5.50;74.40;;;;;;4972583;28;20221;-62
2023/03/15 05:58:20;;;;;;;10.95;5.55;;;5.50;74.40;;;;;;5065662;28;20203;-63
2023/03/15 06:05:27;;;;;;;9.63;4.50;;;5.70;74.40;;;;;;5045703;28;20220;-62
2023/03/15 06:08:34;;;;;;;14.57;6.40;;;5.70;74.30;;;;;;5072397;28;20203;-62
2023/03/15 06:11:42;;;;;;;10.98;5.57;;;5.70;74.30;;;;;;5066283;28;20213;-62
2023/03/15 06:14:22;;;;;;;14.63;5.95;;;5.70;74.30;;;;;;5065586;28;20243;-62
2023/03/15 06:17:14;;;;;;;16.48;6.10;;;5.70;74.20;;;;;;5066505;28;20200;-62
2023/03/15 06:20:11;;;;;;;13.73;4.65;;;5.70;74.20;;;;;;5063645;28;20304;-63
2023/03/15 06:23:31;;;;;;;14.10;5.07;;;5.80;74.20;;;;;;5065084;28;20215;-63
2023/03/15 06:26:21;;;;;;;12.43;5.25;;;5.80;74.10;;;;;;5059560;28;20589;-63
2023/03/15 06:29:16;;;;;;;8.55;4.03;;;5.80;74.10;;;;;;5067101;28;20299;-62
2023/03/15 06:31:56;;;;;;;16.70;5.18;;;5.70;74.00;;;;;;5046973;28;20986;-62
2023/03/15 06:34:56;;;;;;;11.15;4.55;;;5.70;74.00;;;;;;5080138;28;20204;-63
2023/03/15 06:37:48;;;;;;;13.13;4.93;;;5.70;74.00;;;;;;5062574;28;20460;-63
2023/03/15 06:40:39;;;;;;;13.02;5.40;;;5.70;73.90;;;;;;5058994;28;20216;-62
2023/03/15 06:43:23;;;;;;;9.32;4.65;;;5.70;73.90;;;;;;5061799;28;20262;-62
2023/03/15 06:46:20;;;;;;;11.88;5.55;;;5.70;73.80;;;;;;5064003;28;20220;-62
2023/03/15 06:53:46;;;;;;;12.77;5.03;;;5.70;74.00;;;;;;5058257;28;21459;-62
2023/03/15 06:57:24;;;;;;;12.45;5.78;;;5.70;74.00;;;;;;5055529;28;20646;-62
2023/03/15 07:08:46;;;;;;;12.07;4.70;;;5.80;74.00;;;;;;5062288;28;20224;-63
2023/03/15 07:16:20;;;;;;;10.40;5.03;;;6.00;74.20;;;;;;5061911;28;20555;-63
2023/03/15 07:26:23;;;;;;;9.75;4.70;;;6.30;74.20;;;;;;5026055;28;20216;-62
2023/03/15 07:29:30;;;;;;;9.13;4.55;;;6.40;74.10;;;;;;5063475;28;20227;-62
2023/03/15 07:33:36;;;;;;;20.65;4.50;;;6.30;73.80;;;;;;5063478;28;20233;-62
2023/03/15 07:45:14;;;;;;;10.88;5.15;;;6.20;73.60;;;;;;4939450;29;20248;-62
2023/03/15 07:49:21;;;;;;;9.25;4.70;;;6.10;73.70;;;;;;4932457;29;20232;-62
2023/03/15 07:57:56;;;;;;;14.27;4.70;;;6.00;73.90;;;;;;4893764;29;20734;-62
2023/03/15 08:02:17;;;;;;;17.02;5.35;;;6.00;73.80;;;;;;4925322;28;20388;-62
2023/03/15 08:09:57;;;;;;;10.82;5.10;;;5.80;74.00;;;;;;4932698;29;20220;-63
2023/03/15 08:22:13;;;;;;;11.77;5.32;;;5.60;74.40;;;;;;4954920;28;20341;-62
2023/03/15 08:26:14;;;;;;;12.25;5.57;;;5.60;74.70;;;;;;5063953;28;20200;-62
2023/03/15 08:39:05;;;;;;;11.02;4.75;;;5.70;74.90;;;;;;4979875;28;20452;-62
2023/03/15 08:48:13;;;;;;;7.43;3.70;;;5.70;74.80;;;;;;4974417;28;20722;-64
2023/03/15 09:11:47;;;;;;;8.65;3.63;;;5.60;75.50;;;;;;5032412;28;20239;-62
2023/03/15 09:15:48;;;;;;;8.10;3.03;;;5.70;75.80;;;;;;5047506;28;20215;-63
2023/03/15 09:40:26;;;;;;;7.38;3.00;;;5.90;76.30;;;;;;4971040;28;20648;-64
2023/03/15 09:44:23;;;;;;;8.43;3.47;;;6.00;76.30;;;;;;5019514;28;20209;-62
2023/03/15 09:52:08;;;;;;;6.28;3.50;;;6.00;76.30;;;;;;5024012;28;20212;-63
2023/03/15 10:09:14;;;;;;;8.80;3.60;;;5.90;76.30;;;;;;5115682;27;20982;-63
2023/03/15 10:12:05;;;;;;;8.80;3.38;;;6.30;77.30;;;;;;5098057;28;20202;-62
2023/03/15 10:18:54;;;;;;;9.63;3.53;;;6.60;77.30;;;;;;5069378;28;20253;-63
2023/03/15 10:36:34;;;;;;;6.00;3.05;;;7.00;77.10;;;;;;5074499;28;20213;-63
2023/03/15 10:39:45;;;;;;;7.15;3.40;;;7.00;77.20;;;;;;5077103;28;20232;-64
2023/03/15 10:42:39;;;;;;;6.90;2.65;;;7.10;77.20;;;;;;5074496;28;20192;-63
2023/03/15 10:45:33;;;;;;;11.05;3.53;;;7.20;77.10;;;;;;5074397;28;20214;-62
2023/03/15 10:48:33;;;;;;;5.97;3.17;;;7.20;76.90;;;;;;5077627;28;20590;-61
2023/03/15 10:54:45;;;;;;;5.72;3.08;;;7.20;76.80;;;;;;5072720;28;20205;-64
2023/03/15 11:05:46;;;;;;;5.75;3.03;;;7.40;76.90;;;;;;5071513;28;20697;-63
2023/03/15 11:18:00;;;;;;;8.15;3.05;;;7.40;76.60;;;;;;5063331;28;20237;-63
2023/03/15 11:30:00;;;;;;;5.68;2.58;;;7.50;76.50;;;;;;5015030;28;20221;-61
2023/03/15 11:36:07;;;;;;;7.57;3.42;;;7.50;76.50;;;;;;5043067;28;20318;-61
2023/03/15 11:38:53;;;;;;;4.85;2.88;;;7.60;76.50;;;;;;5036165;28;20723;-62
2023/03/15 11:41:48;;;;;;;4.43;2.50;;;7.60;76.40;;;;;;5036412;28;20654;-61
2023/03/15 11:44:57;;;;;;;4.75;2.78;;;7.70;76.30;;;;;;5009290;28;20235;-61
2023/03/15 11:48:08;;;;;;;6.35;3.33;;;7.60;75.90;;;;;;5040586;28;20949;-61
2023/03/15 11:53:50;;;;;;;6.07;3.15;;;7.60;76.20;;;;;;5041383;28;20635;-62
2023/03/15 11:57:05;;;;;;;5.10;2.72;;;7.70;76.20;;;;;;5041021;28;20311;-61
2023/03/15 11:59:58;;;;;;;6.25;2.90;;;7.70;76.20;;;;;;5079657;28;20305;-62
2023/03/15 12:03:01;;;;;;;8.05;3.38;;;7.80;76.30;;;;;;5040386;28;20279;-62
2023/03/15 12:05:52;;;;;;;5.22;3.30;;;7.90;76.20;;;;;;5063087;28;20209;-62
2023/03/15 12:08:54;;;;;;;5.07;3.17;;;7.90;76.00;;;;;;5064531;28;20272;-62
2023/03/15 12:11:59;;;;;;;5.32;3.40;;;7.90;75.80;;;;;;5057194;28;20575;-62
2023/03/15 12:15:13;;;;;;;6.20;2.90;;;7.90;75.80;;;;;;5060834;28;20358;-62
2023/03/15 12:17:59;;;;;;;6.82;3.53;;;7.90;75.60;;;;;;5068243;28;20603;-63
2023/03/15 12:24:14;;;;;;;6.27;3.10;;;7.90;75.60;;;;;;5060956;28;20477;-62
2023/03/15 12:27:25;;;;;;;7.20;3.97;;;7.90;75.70;;;;;;5062463;28;20464;-63
2023/03/15 12:33:21;;;;;;;8.20;3.47;;;8.00;75.70;;;;;;5060245;28;20816;-62
2023/03/15 12:36:13;;;;;;;6.28;3.10;;;8.00;75.70;;;;;;5043537;28;20211;-62
2023/03/15 12:39:30;;;;;;;8.88;3.50;;;8.10;75.60;;;;;;5062990;28;20246;-66
2023/03/15 12:43:27;;;;;;;6.00;3.80;;;8.10;75.40;;;;;;5040976;28;20249;-62
2023/03/15 12:46:14;;;;;;;7.17;4.00;;;8.00;75.20;;;;;;5029653;28;20550;-62
2023/03/15 12:56:13;;;;;;;6.00;3.80;;;8.10;75.30;;;;;;5058144;28;20497;-64
2023/03/15 12:59:37;;;;;;;4.95;3.45;;;8.10;75.40;;;;;;5058521;28;20230;-62
2023/03/15 13:03:02;;;;;;;5.68;3.70;;;8.10;75.30;;;;;;5058504;28;20242;-62
2023/03/15 13:06:25;;;;;;;6.95;3.60;;;8.20;75.30;;;;;;5061360;28;20576;-64
2023/03/15 13:12:32;;;;;;;5.97;3.70;;;8.30;75.10;;;;;;5057887;28;20207;-63
2023/03/15 13:15:18;;;;;;;11.23;4.87;;;8.20;74.60;;;;;;5060803;28;20210;-63
2023/03/15 13:18:32;;;;;;;5.57;3.73;;;8.10;74.60;;;;;;5055554;28;20534;-63
2023/03/15 13:21:34;;;;;;;5.80;3.73;;;8.00;74.30;;;;;;5057237;28;20484;-67
2023/03/15 13:24:28;;;;;;;5.82;3.35;;;7.90;74.70;;;;;;5057409;28;20775;-64
2023/03/15 13:27:16;;;;;;;7.97;4.07;;;7.90;74.60;;;;;;5056963;28;20643;-63
2023/03/15 13:32:59;;;;;;;6.32;3.40;;;8.00;74.60;;;;;;5058370;28;20321;-63
2023/03/15 13:36:07;;;;;;;7.72;3.88;;;8.10;74.70;;;;;;4992748;28;20219;-63
2023/03/15 13:38:56;;;;;;;6.53;4.13;;;8.10;74.70;;;;;;5061684;28;20326;-64
2023/03/15 13:41:51;;;;;;;5.97;4.57;;;8.20;74.60;;;;;;5060925;28;20335;-63
2023/03/15 13:44:40;;;;;;;6.23;3.73;;;8.30;74.60;;;;;;5025951;28;20469;-63
2023/03/15 13:47:33;;;;;;;6.53;3.97;;;8.40;74.50;;;;;;5052967;28;20464;-63
2023/03/15 13:50:23;;;;;;;6.03;3.50;;;8.50;74.60;;;;;;5030487;28;20463;-63
2023/03/15 13:56:54;;;;;;;11.77;6.03;;;8.40;73.60;;;;;;5056261;28;20484;-63
2023/03/15 13:59:43;;;;;;;10.47;6.07;;;8.10;73.30;;;;;;5031343;28;20611;-63
2023/03/15 14:02:24;;;;;;;35.40;11.30;;;8.00;73.80;;;;;;5058080;28;20492;-64
2023/03/15 14:05:27;;;;;;;8.97;4.73;;;7.90;74.00;;;;;;5057106;28;20290;-64
2023/03/15 14:08:19;;;;;;;7.50;3.83;;;8.00;74.30;;;;;;5058654;28;20495;-63
2023/03/15 14:11:16;;;;;;;11.30;5.57;;;8.10;74.30;;;;;;5059031;28;20466;-64
2023/03/15 14:14:39;;;;;;;6.70;4.10;;;8.10;74.20;;;;;;5057561;28;20469;-63
2023/03/15 14:17:35;;;;;;;7.33;4.50;;;8.20;74.20;;;;;;5042039;28;20926;-63
2023/03/15 14:20:32;;;;;;;6.60;4.00;;;8.10;73.80;;;;;;5061598;28;20442;-63
2023/03/15 14:26:28;;;;;;;7.03;4.53;;;8.00;74.00;;;;;;5056895;28;20475;-63
2023/03/15 14:29:40;;;;;;;6.63;4.63;;;8.00;74.20;;;;;;5060039;28;20450;-63
2023/03/15 14:32:45;;;;;;;8.47;3.30;;;8.10;74.00;;;;;;5032262;28;20230;-64
2023/03/15 14:35:52;;;;;;;5.70;2.75;;;8.00;73.90;;;;;;5059924;28;20466;-63
2023/03/15 14:38:46;;;;;;;6.30;2.43;;;7.80;74.00;;;;;;5058459;28;20258;-63
2023/03/15 14:41:46;;;;;;;5.13;2.20;;;7.80;74.00;;;;;;5059479;28;20492;-61
2023/03/15 15:08:47;;;;;;;8.18;3.95;;;7.90;74.10;;;;;;5831860;23;20246;-77
2023/03/15 15:11:24;;;;;;;6.03;3.67;;;7.90;74.00;;;;;;5025380;28;20211;-77
2023/03/15 15:14:01;;;;;;;7.82;3.80;;;7.80;74.00;;;;;;5039170;28;20508;-77
2023/03/15 15:16:35;;;;;;;9.05;3.90;;;7.80;74.10;;;;;;5025275;28;20263;-81
2023/03/15 15:19:05;;;;;;;9.13;3.92;;;7.80;74.10;;;;;;5037834;28;20258;-82
2023/03/15 15:21:34;;;;;;;5.78;3.90;;;7.80;74.20;;;;;;5036850;28;20265;-79
2023/03/15 15:24:07;;;;;;;7.30;4.10;;;7.80;74.20;;;;;;5034725;28;20218;-80
2023/03/15 15:26:36;;;;;;;7.30;3.70;;;7.90;74.30;;;;;;5040998;28;20214;-79
2023/03/15 15:29:06;;;;;;;6.55;4.00;;;7.90;74.40;;;;;;5042888;28;20459;-80
2023/03/15 15:31:37;;;;;;;7.20;4.20;;;7.90;74.40;;;;;;5044063;28;20295;-79
2023/03/15 15:34:06;;;;;;;7.50;4.07;;;8.00;74.50;;;;;;5020774;28;20486;-80
2023/03/15 15:36:37;;;;;;;8.60;4.10;;;8.00;74.60;;;;;;5040827;28;20224;-81
2023/03/15 15:39:15;;;;;;;5.88;3.67;;;8.10;74.60;;;;;;5042358;28;20220;-80
2023/03/15 15:41:46;;;;;;;5.40;3.10;;;8.20;74.60;;;;;;5041610;28;20201;-79
2023/03/15 15:44:17;;;;;;;6.65;3.70;;;8.10;74.60;;;;;;5026401;28;20960;-79
2023/03/15 15:46:45;;;;;;;5.80;3.50;;;8.20;74.60;;;;;;5030769;28;20398;-82
2023/03/15 15:49:18;;;;;;;9.53;4.30;;;8.20;74.60;;;;;;5028793;28;20239;-81
2023/03/15 15:51:48;;;;;;;7.65;3.85;;;8.20;74.60;;;;;;5044577;28;20928;-81
2023/03/15 15:54:26;;;;;;;7.00;4.37;;;8.20;74.60;;;;;;5022803;28;20203;-81
2023/03/15 15:56:57;;;;;;;7.57;3.63;;;8.30;74.50;;;;;;5044229;28;20552;-79
2023/03/15 15:59:27;;;;;;;5.60;3.07;;;8.30;74.60;;;;;;5043339;28;20478;-79
2023/03/15 16:01:56;;;;;;;7.30;4.10;;;8.30;74.50;;;;;;5043107;28;20623;-80
2023/03/15 16:04:35;;;;;;;6.57;3.40;;;8.30;74.40;;;;;;5036817;28;20454;-80
2023/03/15 16:07:04;;;;;;;9.13;4.20;;;8.30;74.40;;;;;;5041296;28;20208;-80
2023/03/15 16:09:35;;;;;;;6.18;4.00;;;8.20;74.30;;;;;;5035094;28;20468;-78
2023/03/15 16:12:12;;;;;;;7.20;3.50;;;8.30;74.40;;;;;;5042457;28;20358;-79
2023/03/15 16:14:40;;;;;;;7.65;3.60;;;8.30;74.30;;;;;;5042675;28;20465;-80
2023/03/15 16:17:11;;;;;;;7.05;3.90;;;8.30;74.30;;;;;;5043412;28;20242;-80
2023/03/15 16:19:39;;;;;;;5.95;3.95;;;8.30;74.30;;;;;;5044646;28;20218;-80
2023/03/15 16:22:11;;;;;;;7.60;3.43;;;8.30;74.30;;;;;;5046013;28;20208;-80
2023/03/15 16:24:44;;;;;;;7.03;3.90;;;8.30;74.10;;;;;;5027112;28;20462;-80
2023/03/15 16:27:15;;;;;;;7.72;4.13;;;8.30;74.10;;;;;;5042514;28;20500;-79
2023/03/15 16:29:46;;;;;;;9.93;3.80;;;8.30;74.10;;;;;;5045227;28;20200;-80
2023/03/15 16:32:17;;;;;;;6.07;3.47;;;8.20;74.00;;;;;;5025298;28;20486;-80
2023/03/15 16:35:01;;;;;;;7.18;3.92;;;8.20;73.90;;;;;;5022809;28;20209;-78
2023/03/15 16:37:31;;;;;;;6.97;3.90;;;8.20;74.00;;;;;;5043599;28;20223;-81
2023/03/15 16:40:08;;;;;;;7.38;3.88;;;8.20;73.90;;;;;;5044073;28;20481;-79
2023/03/15 16:42:37;;;;;;;7.30;4.10;;;8.10;73.90;;;;;;5009513;28;20282;-82
2023/03/15 16:45:13;;;;;;;10.32;4.20;;;8.10;73.80;;;;;;5042078;28;20474;-79
2023/03/15 16:47:43;;;;;;;8.90;3.60;;;8.10;73.80;;;;;;5036163;28;20689;-81
2023/03/15 16:50:11;;;;;;;7.00;4.22;;;8.10;73.70;;;;;;5035879;28;20215;-80
2023/03/15 16:52:41;;;;;;;6.10;3.70;;;8.10;73.70;;;;;;5034875;28;20211;-79
2023/03/15 16:55:14;;;;;;;7.30;3.50;;;8.00;73.60;;;;;;5035904;28;20836;-82
2023/03/15 16:57:43;;;;;;;9.05;4.00;;;8.00;73.50;;;;;;5035521;28;21687;-80
2023/03/15 17:00:15;;;;;;;6.43;2.80;;;8.00;73.50;;;;;;5020700;28;20228;-81
2023/03/15 17:02:46;;;;;;;10.65;4.22;;;7.90;73.50;;;;;;5035156;28;20192;-84
2023/03/15 17:05:18;;;;;;;8.50;3.90;;;7.90;73.40;;;;;;5034709;28;20926;-81
2023/03/15 17:07:48;;;;;;;6.20;3.58;;;7.90;73.30;;;;;;5036669;28;20507;-81
2023/03/15 17:10:21;;;;;;;6.32;3.50;;;7.80;73.20;;;;;;5017767;28;20212;-81
2023/03/15 17:12:51;;;;;;;8.40;4.18;;;7.70;73.10;;;;;;5039344;28;20206;-79
2023/03/15 17:15:21;;;;;;;6.72;3.83;;;7.70;73.20;;;;;;5031845;28;20219;-82
2023/03/15 17:17:49;;;;;;;7.97;3.70;;;7.70;73.30;;;;;;5038318;28;20203;-78
2023/03/15 17:20:20;;;;;;;6.40;3.63;;;7.70;73.30;;;;;;5025192;28;20223;-79
2023/03/15 17:22:49;;;;;;;9.93;3.88;;;7.70;73.20;;;;;;5039285;28;20230;-77
2023/03/15 17:25:19;;;;;;;5.65;3.20;;;7.60;73.10;;;;;;5020883;28;20214;-78
2023/03/15 17:27:48;;;;;;;8.95;4.47;;;7.60;73.10;;;;;;5033675;28;20219;-80
2023/03/15 17:30:19;;;;;;;8.18;4.47;;;7.50;73.00;;;;;;5037781;28;20226;-79
2023/03/15 17:32:48;;;;;;;11.25;5.80;;;7.40;72.90;;;;;;5026716;28;20216;-78
2023/03/15 17:35:18;;;;;;;13.20;7.75;;;7.30;72.80;;;;;;5035630;28;20211;-79
2023/03/15 17:37:47;;;;;;;20.48;11.82;;;7.20;72.80;;;;;;5037346;28;20210;-79
2023/03/15 17:40:22;;;;;;;22.70;12.57;;;7.10;72.90;;;;;;5034671;28;20631;-78
2023/03/15 17:42:51;;;;;;;11.85;7.00;;;7.10;73.10;;;;;;5030994;28;20667;-79
2023/03/15 17:45:22;;;;;;;19.33;9.88;;;7.10;73.00;;;;;;5001379;28;20731;-78
2023/03/15 17:47:52;;;;;;;31.55;16.48;;;7.00;73.10;;;;;;5015475;28;20222;-79
2023/03/15 17:50:21;;;;;;;32.78;18.52;;;6.90;73.00;;;;;;5031877;28;20217;-80
2023/03/15 17:52:53;;;;;;;23.85;13.60;;;6.80;73.00;;;;;;5018905;28;20202;-80
2023/03/15 17:55:25;;;;;;;11.40;7.35;;;6.70;73.10;;;;;;5029705;28;20219;-79
2023/03/15 17:57:54;;;;;;;22.33;13.90;;;6.50;73.00;;;;;;5033552;28;20203;-79
2023/03/15 18:00:24;;;;;;;24.05;16.40;;;6.40;73.00;;;;;;5016755;28;20218;-78
2023/03/15 18:02:54;;;;;;;20.05;12.30;;;6.40;73.40;;;;;;5032573;28;20211;-78
2023/03/15 18:05:25;;;;;;;16.23;9.75;;;6.40;73.60;;;;;;5032486;28;20207;-79
2023/03/15 18:07:53;;;;;;;13.13;8.07;;;6.30;73.60;;;;;;5027934;28;20206;-80
2023/03/15 18:10:33;;;;;;;12.50;7.30;;;6.30;73.70;;;;;;5032653;28;20194;-80
2023/03/15 18:13:02;;;;;;;20.30;12.73;;;6.40;73.90;;;;;;5019752;28;20217;-80
2023/03/15 18:15:31;;;;;;;37.63;19.33;;;6.40;73.80;;;;;;5033411;28;20219;-79
2023/03/15 18:18:00;;;;;;;34.78;18.20;;;6.40;73.70;;;;;;5033787;28;20203;-81
2023/03/15 18:20:28;;;;;;;34.10;19.23;;;6.40;73.80;;;;;;5037998;28;20219;-79
2023/03/15 18:22:57;;;;;;;43.97;25.88;;;6.40;73.90;;;;;;5035286;28;20232;-78
2023/03/15 18:25:28;;;;;;;37.88;21.85;;;6.40;73.80;;;;;;5028942;28;20228;-80
2023/03/15 18:27:58;;;;;;;27.10;15.15;;;6.40;73.90;;;;;;5024345;28;20215;-79
2023/03/15 18:30:28;;;;;;;31.67;18.75;;;6.40;73.90;;;;;;5035820;28;20468;-78
2023/03/15 18:32:56;;;;;;;21.95;13.02;;;6.30;73.80;;;;;;5029919;28;20583;-80
2023/03/15 18:35:26;;;;;;;41.28;19.40;;;6.30;73.70;;;;;;5041233;28;20205;-80
2023/03/15 18:38:03;;;;;;;25.35;14.90;;;6.20;73.60;;;;;;5047587;28;20202;-82
2023/03/15 18:40:34;;;;;;;40.70;21.80;;;6.10;73.40;;;;;;5042762;28;20225;-83
2023/03/15 18:43:05;;;;;;;47.45;32.05;;;5.90;73.40;;;;;;5041759;28;20211;-80
2023/03/15 18:45:35;;;;;;;94.00;53.17;;;5.80;73.80;;;;;;5043417;28;20224;-79
2023/03/15 18:48:05;;;;;;;47.42;27.15;;;5.80;74.00;;;;;;5040710;28;20228;-81
2023/03/15 18:50:34;;;;;;;42.20;23.10;;;5.80;74.10;;;;;;5022956;28;20274;-82
2023/03/15 18:53:03;;;;;;;117.07;46.13;;;5.80;74.10;;;;;;5031342;28;20215;-85
2023/03/15 18:55:34;;;;;;;226.38;72.72;;;5.80;74.00;;;;;;5041208;28;20194;-85
2023/03/15 18:58:07;;;;;;;108.32;44.92;;;5.80;73.80;;;;;;5040256;28;20205;-83
2023/03/15 19:00:37;;;;;;;49.05;24.98;;;5.70;73.90;;;;;;5034506;28;20260;-83
2023/03/15 19:03:07;;;;;;;41.35;22.92;;;5.60;73.90;;;;;;5034416;28;20233;-82
2023/03/15 19:05:37;;;;;;;39.63;22.10;;;5.60;73.80;;;;;;5025616;28;20240;-83
2023/03/15 19:08:05;;;;;;;30.67;17.73;;;5.50;73.90;;;;;;5029890;28;20308;-84
2023/03/15 19:10:35;;;;;;;28.02;18.73;;;5.50;74.00;;;;;;5023140;28;20205;-83
2023/03/15 19:13:05;;;;;;;26.08;16.55;;;5.50;74.10;;;;;;5042171;28;20197;-82
2023/03/15 19:15:33;;;;;;;33.10;22.13;;;5.40;74.10;;;;;;5039119;28;20220;-82
2023/03/15 19:18:02;;;;;;;29.05;18.95;;;5.40;74.10;;;;;;5044412;28;20595;-80
2023/03/15 19:20:30;;;;;;;36.42;22.95;;;5.30;74.10;;;;;;5040358;28;20217;-79
2023/03/15 19:22:59;;;;;;;46.22;29.25;;;5.30;74.20;;;;;;5022967;28;20200;-80
2023/03/15 19:25:27;;;;;;;27.83;19.02;;;5.30;74.30;;;;;;5027051;28;20210;-81
2023/03/15 19:27:56;;;;;;;33.58;19.83;;;5.30;74.60;;;;;;5043461;28;20200;-81
2023/03/15 19:30:26;;;;;;;19.02;13.20;;;5.30;74.60;;;;;;5038899;28;20196;-79
2023/03/15 19:32:55;;;;;;;28.08;15.80;;;5.30;74.70;;;;;;5038698;28;20219;-81
2023/03/15 19:35:25;;;;;;;28.80;18.40;;;5.40;74.60;;;;;;5020502;28;20672;-84
2023/03/15 19:37:55;;;;;;;27.50;17.77;;;5.30;74.40;;;;;;5038479;28;20190;-80
2023/03/15 19:40:28;;;;;;;29.92;17.95;;;5.30;74.40;;;;;;5040044;28;20643;-82
2023/03/15 19:42:58;;;;;;;26.60;18.13;;;5.30;74.60;;;;;;5041082;28;20193;-83